Time;durP1;ratioP1;P1;durP2;ratioP2;P2;SDS_P1;SDS_P2;PMS_P1;PMS_P2;Temp;Humidity;BMP_temperature;BMP_pressure;BME280_temperature;BME280_humidity;BME280_pressure;Samples;Min_cycle;Max_cycle;Signal;HPM_P1;HPM_P2
2021/01/05 00:02:20;;;;;;;28.73;16.48;;;;;;;6.32;85.34;99459.16;5034534;28;20037;-73
2021/01/05 00:04:46;;;;;;;31.73;16.13;;;;;;;6.27;85.70;99455.94;5035713;28;20077;-74
2021/01/05 00:07:12;;;;;;;26.77;15.63;;;;;;;6.24;85.55;99452.56;5053403;28;20029;-74
2021/01/05 00:09:38;;;;;;;28.80;16.63;;;;;;;6.19;85.67;99450.19;5052943;28;20040;-75
2021/01/05 00:12:07;;;;;;;27.05;16.65;;;;;;;6.22;85.83;99455.31;5035420;28;20029;-74
2021/01/05 00:14:33;;;;;;;24.63;13.93;;;;;;;6.19;85.68;99450.19;5053055;28;20040;-72
2021/01/05 00:16:58;;;;;;;29.98;15.82;;;;;;;6.02;85.82;99416.69;5053346;28;20040;-72
2021/01/05 00:19:25;;;;;;;25.83;15.73;;;;;;;6.13;85.21;99429.34;5035217;28;20401;-72
2021/01/05 00:21:51;;;;;;;27.80;15.57;;;;;;;6.19;85.41;99441.38;5019135;28;20045;-72
2021/01/05 00:24:17;;;;;;;27.65;15.25;;;;;;;6.31;85.24;99449.50;5052963;28;20379;-72
2021/01/05 00:26:43;;;;;;;26.27;14.68;;;;;;;6.09;85.42;99422.50;5053042;28;20029;-72
2021/01/05 00:29:10;;;;;;;24.75;14.57;;;;;;;6.09;84.72;99409.28;5053142;28;20033;-73
2021/01/05 00:31:36;;;;;;;26.52;14.38;;;;;;;6.32;84.83;99442.41;5052638;28;20051;-73
2021/01/05 00:34:02;;;;;;;26.98;15.02;;;;;;;6.32;85.19;99460.94;5052971;28;20094;-74
2021/01/05 00:36:28;;;;;;;28.98;15.95;;;;;;;6.13;85.25;99429.34;5052801;28;20482;-74
2021/01/05 00:38:54;;;;;;;26.75;15.43;;;;;;;6.26;85.27;99464.78;5052827;28;20036;-74
2021/01/05 00:41:20;;;;;;;25.17;15.00;;;;;;;6.24;85.76;99463.16;5052474;28;20032;-81
2021/01/05 00:43:47;;;;;;;25.00;15.18;;;;;;;6.28;85.64;99470.88;5053327;28;20064;-74
2021/01/05 00:46:13;;;;;;;25.30;14.73;;;;;;;6.28;85.79;99468.22;5052681;28;20064;-73
2021/01/05 00:48:40;;;;;;;26.25;15.63;;;;;;;6.06;86.03;99433.25;5052497;28;20098;-72
2021/01/05 00:51:06;;;;;;;25.63;13.88;;;;;;;6.11;85.98;99446.25;5018577;28;20390;-72
2021/01/05 00:53:32;;;;;;;26.77;14.73;;;;;;;6.28;85.49;99460.28;5034588;28;20033;-72
2021/01/05 00:55:57;;;;;;;25.23;14.23;;;;;;;6.34;85.08;99459.06;5052887;28;20044;-72
2021/01/05 00:58:23;;;;;;;22.58;13.27;;;;;;;6.13;85.12;99436.41;5034784;28;20051;-73
2021/01/05 01:00:50;;;;;;;24.45;13.63;;;;;;;6.30;85.77;99473.44;5034874;28;20494;-74
2021/01/05 01:03:17;;;;;;;24.38;13.05;;;;;;;6.21;85.87;99458.91;5052742;28;20037;-74
2021/01/05 01:05:43;;;;;;;23.25;13.38;;;;;;;6.22;85.96;99460.59;5018305;28;20087;-74
2021/01/05 01:08:09;;;;;;;25.25;13.50;;;;;;;5.93;86.09;99416.34;5036578;28;20120;-75
2021/01/05 01:10:34;;;;;;;23.65;13.70;;;;;;;6.30;86.56;99474.28;5038487;28;20037;-75
2021/01/05 01:13:00;;;;;;;22.05;13.43;;;;;;;6.23;86.16;99457.00;5038870;28;20389;-74
2021/01/05 01:15:25;;;;;;;24.70;13.88;;;;;;;6.24;86.85;99474.59;5056355;28;20021;-72
2021/01/05 01:17:50;;;;;;;21.95;12.32;;;;;;;6.23;86.78;99461.47;5056731;28;20082;-73
2021/01/05 01:20:16;;;;;;;23.23;13.25;;;;;;;6.27;86.58;99460.34;5021992;28;20033;-73
2021/01/05 01:22:41;;;;;;;21.38;12.60;;;;;;;6.22;86.75;99449.16;5038226;28;20029;-73
2021/01/05 01:25:07;;;;;;;24.08;12.40;;;;;;;6.23;86.94;99459.66;5038612;28;20029;-74
2021/01/05 01:27:33;;;;;;;21.23;12.50;;;;;;;6.30;86.11;99461.03;5056100;28;20037;-72
2021/01/05 01:29:58;;;;;;;22.80;12.60;;;;;;;6.08;85.99;99414.63;5038607;28;20040;-72
2021/01/05 01:32:23;;;;;;;22.13;12.77;;;;;;;6.18;86.30;99431.75;5052011;28;20056;-75
2021/01/05 01:34:49;;;;;;;18.67;11.45;;;;;;;6.33;85.68;99449.41;5058298;28;20032;-72
2021/01/05 01:37:16;;;;;;;20.17;12.10;;;;;;;6.32;85.83;99440.63;5058100;28;20029;-72
2021/01/05 01:39:44;;;;;;;20.58;12.30;;;;;;;6.24;85.58;99429.59;5075955;28;20032;-72
2021/01/05 01:42:12;;;;;;;22.92;11.85;;;;;;;6.04;86.04;99411.28;5076000;28;20047;-72
2021/01/05 01:44:40;;;;;;;19.75;11.65;;;;;;;6.26;85.85;99445.38;5074635;28;20366;-75
2021/01/05 01:47:15;;;;;;;21.88;12.43;;;;;;;6.13;85.91;99423.19;5075949;28;20039;-75
2021/01/05 01:49:44;;;;;;;22.17;12.52;;;;;;;6.19;85.94;99439.59;5075637;28;20025;-75
2021/01/05 01:52:10;;;;;;;21.42;12.27;;;;;;;6.23;85.52;99419.94;5074804;28;20036;-74
2021/01/05 01:55:08;;;;;;;23.77;12.77;;;;;;;6.21;85.63;99440.34;5074277;28;20086;-77
2021/01/05 01:58:01;;;;;;;22.27;12.95;;;;;;;6.24;85.80;99431.38;5076029;28;20381;-75
2021/01/05 02:00:39;;;;;;;20.02;12.38;;;;;;;6.01;85.34;99390.31;5075404;28;20021;-75
2021/01/05 02:03:16;;;;;;;20.50;11.98;;;;;;;6.18;84.93;99432.59;5075677;28;20036;-74
2021/01/05 02:05:58;;;;;;;23.45;12.80;;;;;;;6.16;85.64;99418.56;5075355;28;20474;-72
2021/01/05 02:08:29;;;;;;;21.48;12.73;;;;;;;6.12;85.89;99410.88;5074644;28;20048;-72
2021/01/05 02:11:29;;;;;;;20.05;11.77;;;;;;;6.11;84.57;99409.19;5075434;28;20162;-72
2021/01/05 02:14:07;;;;;;;21.73;12.57;;;;;;;6.15;84.48;99405.41;5075662;28;20481;-72
2021/01/05 02:16:56;;;;;;;23.58;12.35;;;;;;;6.17;84.42;99403.53;5075039;28;20489;-72
2021/01/05 02:19:49;;;;;;;22.17;11.60;;;;;;;6.14;84.01;99398.41;5074846;28;20078;-72
2021/01/05 02:22:52;;;;;;;20.43;11.33;;;;;;;6.25;82.86;99396.00;5075450;28;20032;-73
2021/01/05 02:25:27;;;;;;;21.33;10.98;;;;;;;6.22;82.84;99386.44;5075133;28;20081;-73
2021/01/05 02:27:57;;;;;;;21.63;11.63;;;;;;;6.15;83.08;99379.78;5075213;28;20093;-73
2021/01/05 02:30:30;;;;;;;20.15;11.73;;;;;;;6.11;82.72;99372.97;5075109;28;20111;-72
2021/01/05 02:33:05;;;;;;;19.40;10.70;;;;;;;6.23;82.75;99384.66;5037405;28;20041;-72
2021/01/05 02:36:16;;;;;;;19.70;11.23;;;;;;;6.18;82.40;99369.03;5054662;28;20029;-73
2021/01/05 02:39:05;;;;;;;20.23;11.05;;;;;;;6.23;82.22;99366.13;5054927;28;20494;-73
2021/01/05 02:41:48;;;;;;;21.58;12.35;;;;;;;6.18;83.01;99366.41;5037067;28;20446;-73
2021/01/05 02:44:24;;;;;;;22.63;11.52;;;;;;;6.06;82.59;99351.16;5055376;28;20036;-72
2021/01/05 02:46:52;;;;;;;21.40;12.00;;;;;;;6.14;82.26;99362.19;5037496;28;20104;-72
2021/01/05 02:49:36;;;;;;;21.95;12.45;;;;;;;6.25;82.41;99365.09;5055044;28;20025;-71
2021/01/05 02:52:39;;;;;;;19.83;12.05;;;;;;;6.28;82.24;99370.22;5055114;28;20083;-72
2021/01/05 02:55:27;;;;;;;25.33;13.70;;;;;;;6.00;82.42;99338.31;5054686;28;20033;-71
2021/01/05 02:58:31;;;;;;;23.58;13.07;;;;;;;6.26;82.30;99365.94;5036824;28;20463;-70
2021/01/05 03:01:10;;;;;;;;;;;;;;;6.22;82.32;99373.22;5050212;28;20048;-71
2021/01/05 03:03:39;;;;;;;25.40;13.57;;;;;;;6.15;82.87;99371.00;5036402;28;19999;-71
2021/01/05 03:06:16;;;;;;;27.60;14.70;;;;;;;6.17;82.78;99369.94;5054607;28;20385;-71
2021/01/05 03:09:20;;;;;;;27.85;15.25;;;;;;;6.21;82.94;99370.66;5054243;28;20048;-70
2021/01/05 03:11:45;;;;;;;25.75;13.93;;;;;;;6.14;83.18;99370.13;5036156;28;20031;-72
2021/01/05 03:14:20;;;;;;;29.38;15.55;;;;;;;6.10;83.45;99373.91;5054340;28;20033;-71
2021/01/05 03:16:56;;;;;;;26.77;14.32;;;;;;;6.16;83.13;99373.53;5053955;28;20466;-71
2021/01/05 03:19:43;;;;;;;26.27;14.25;;;;;;;6.13;83.41;99373.72;5054224;28;20109;-71
2021/01/05 03:22:12;;;;;;;27.15;14.80;;;;;;;6.05;83.87;99375.94;5054445;28;20025;-71
2021/01/05 03:24:40;;;;;;;27.77;15.32;;;;;;;6.02;83.77;99373.47;5036136;28;20029;-72
2021/01/05 03:27:07;;;;;;;30.67;16.83;;;;;;;5.88;84.05;99350.38;5036410;28;20040;-72
2021/01/05 03:29:32;;;;;;;25.92;15.75;;;;;;;5.93;84.52;99371.34;5036066;28;20552;-72
2021/01/05 03:32:06;;;;;;;29.25;16.17;;;;;;;5.91;84.61;99370.56;5056206;28;20060;-71
2021/01/05 03:34:31;;;;;;;31.85;17.40;;;;;;;5.83;84.77;99354.22;5053498;28;20067;-75
2021/01/05 03:36:57;;;;;;;28.52;16.13;;;;;;;5.87;84.82;99361.88;5054007;28;20037;-71
2021/01/05 03:39:23;;;;;;;29.73;16.20;;;;;;;5.78;85.30;99365.03;5053808;28;20492;-71
2021/01/05 03:41:48;;;;;;;28.55;15.32;;;;;;;5.76;84.99;99356.34;5053510;28;20037;-71
2021/01/05 03:44:13;;;;;;;28.45;15.93;;;;;;;5.82;84.98;99355.16;5053683;28;20052;-72
2021/01/05 03:46:39;;;;;;;26.85;15.18;;;;;;;5.75;84.81;99341.41;5053058;28;20036;-72
2021/01/05 03:49:05;;;;;;;29.05;14.18;;;;;;;5.81;84.68;99353.47;5053524;28;20033;-72
2021/01/05 03:51:30;;;;;;;27.08;14.43;;;;;;;5.70;84.59;99327.59;5019275;28;20037;-71
2021/01/05 03:53:55;;;;;;;27.25;13.85;;;;;;;5.85;84.21;99349.69;5053201;28;20036;-73
2021/01/05 03:56:21;;;;;;;31.85;15.15;;;;;;;5.82;84.22;99345.44;5053821;28;20041;-71
2021/01/05 03:58:47;;;;;;;27.88;14.68;;;;;;;5.81;84.45;99348.16;5053089;28;20032;-73
2021/01/05 04:01:12;;;;;;;32.15;16.10;;;;;;;5.68;84.67;99337.38;5035893;28;20115;-72
2021/01/05 04:03:40;;;;;;;30.38;16.05;;;;;;;5.67;84.80;99347.09;5053256;28;20041;-73
2021/01/05 04:06:05;;;;;;;31.85;16.40;;;;;;;5.54;85.49;99340.78;5035567;28;20039;-73
2021/01/05 04:08:31;;;;;;;31.35;16.58;;;;;;;5.58;85.58;99347.59;5053189;28;20024;-73
2021/01/05 04:10:56;;;;;;;31.20;16.17;;;;;;;5.54;85.77;99351.38;5052830;28;20032;-72
2021/01/05 04:13:22;;;;;;;32.03;16.73;;;;;;;5.52;85.61;99325.94;5052847;28;20039;-72
2021/01/05 04:15:47;;;;;;;31.30;16.48;;;;;;;5.54;85.77;99338.13;5035119;28;20029;-74
2021/01/05 04:18:13;;;;;;;30.92;15.50;;;;;;;5.48;86.15;99341.09;5002542;28;20128;-71
2021/01/05 04:20:38;;;;;;;30.80;15.68;;;;;;;5.41;86.46;99339.75;5035365;28;20036;-72
2021/01/05 04:23:04;;;;;;;31.38;14.77;;;;;;;5.42;86.51;99336.16;5035600;28;20040;-72
2021/01/05 04:25:30;;;;;;;26.88;13.73;;;;;;;5.32;86.99;99335.78;5053069;28;20033;-72
2021/01/05 04:27:56;;;;;;;30.00;16.98;;;;;;;5.05;87.49;99310.81;5052658;28;20025;-72
2021/01/05 04:30:29;;;;;;;35.60;17.52;;;;;;;5.32;87.10;99350.81;5053014;28;20065;-72
2021/01/05 04:32:56;;;;;;;32.13;16.20;;;;;;;5.35;86.99;99358.56;5052514;28;20155;-71
2021/01/05 04:35:23;;;;;;;34.85;17.40;;;;;;;5.07;87.05;99320.38;5053110;28;20045;-71
2021/01/05 04:37:49;;;;;;;32.55;16.63;;;;;;;5.31;86.93;99354.41;5034763;28;20056;-71
2021/01/05 04:40:40;;;;;;;28.50;15.00;;;;;;;5.33;87.09;99363.09;5035071;28;20036;-71
2021/01/05 04:43:13;;;;;;;27.83;14.98;;;;;;;5.39;86.73;99374.19;5039988;28;20044;-71
2021/01/05 04:45:51;;;;;;;29.27;14.90;;;;;;;5.30;86.79;99355.31;5052827;28;20033;-72
2021/01/05 04:48:39;;;;;;;33.05;15.80;;;;;;;5.34;87.00;99375.38;5035326;28;20052;-71
2021/01/05 04:51:12;;;;;;;32.90;16.83;;;;;;;5.35;86.83;99382.38;5052685;28;20029;-71
2021/01/05 04:53:54;;;;;;;32.58;17.52;;;;;;;5.33;86.92;99381.59;5034931;28;20040;-71
2021/01/05 04:56:26;;;;;;;33.60;17.60;;;;;;;5.10;87.26;99353.69;5035171;28;20077;-71
2021/01/05 04:58:57;;;;;;;32.33;16.65;;;;;;;4.94;87.19;99335.16;5052352;28;20033;-71
2021/01/05 05:01:26;;;;;;;34.42;16.90;;;;;;;5.20;87.70;99384.00;5052953;28;20145;-71
2021/01/05 05:04:06;;;;;;;38.63;18.58;;;;;;;4.86;88.05;99327.63;5052428;28;20083;-72
2021/01/05 05:06:41;;;;;;;40.38;17.63;;;;;;;5.13;88.27;99390.56;5052782;28;20036;-71
2021/01/05 05:09:25;;;;;;;37.03;17.70;;;;;;;5.12;88.25;99392.38;5052594;28;20033;-74
2021/01/05 05:11:58;;;;;;;37.10;18.83;;;;;;;5.15;87.90;99386.06;5052183;28;20033;-74
2021/01/05 05:14:47;;;;;;;39.35;19.45;;;;;;;5.15;88.20;99397.47;5052544;28;20339;-75
2021/01/05 05:17:28;;;;;;;36.83;19.65;;;;;;;5.11;88.59;99405.63;5034957;28;20460;-75
2021/01/05 05:20:43;;;;;;;39.75;16.48;;;;;;;5.12;88.66;99396.78;5052475;28;20363;-74
2021/01/05 05:23:29;;;;;;;39.63;19.98;;;;;;;5.11;88.69;99397.69;4971628;28;20026;-75
2021/01/05 05:26:33;;;;;;;44.03;20.63;;;;;;;5.13;88.47;99394.06;5046145;28;20428;-75
2021/01/05 05:29:14;;;;;;;40.53;18.20;;;;;;;4.86;88.54;99347.91;5052099;28;20876;-72
2021/01/05 05:31:42;;;;;;;40.15;20.25;;;;;;;5.05;88.37;99385.69;5051656;28;20052;-79
2021/01/05 05:34:35;;;;;;;40.85;19.65;;;;;;;5.15;88.25;99397.47;5052093;28;20120;-75
2021/01/05 05:37:37;;;;;;;45.22;21.35;;;;;;;5.16;88.46;99393.03;5051018;28;20470;-75
2021/01/05 05:40:06;;;;;;;36.92;18.05;;;;;;;5.12;88.60;99392.38;5051898;28;20116;-75
2021/01/05 05:42:57;;;;;;;38.85;19.05;;;;;;;5.15;88.44;99400.13;5034417;28;20047;-73
2021/01/05 05:45:31;;;;;;;41.65;21.38;;;;;;;5.13;88.66;99394.06;5052168;28;20100;-73
2021/01/05 05:48:10;;;;;;;41.33;19.38;;;;;;;5.17;88.47;99398.25;5034130;28;20116;-72
2021/01/05 05:50:54;;;;;;;42.50;20.00;;;;;;;5.20;88.41;99399.88;5052170;28;20057;-73
2021/01/05 05:53:23;;;;;;;;;;;;;;;5.22;88.36;99403.31;5052868;28;20032;-74
2021/01/05 05:55:57;;;;;;;40.15;17.38;;;;;;;5.13;88.43;99394.06;5037407;28;20009;-71
2021/01/05 05:58:45;;;;;;;39.70;18.38;;;;;;;4.96;87.88;99358.84;5055791;28;20041;-73
2021/01/05 06:01:21;;;;;;;45.00;20.60;;;;;;;5.10;88.18;99385.41;5054444;28;20123;-74
2021/01/05 06:03:48;;;;;;;42.13;20.10;;;;;;;5.13;87.73;99387.94;5055112;28;20033;-73
2021/01/05 06:06:13;;;;;;;41.65;19.50;;;;;;;5.14;87.61;99389.63;5021273;28;20032;-73
2021/01/05 06:08:39;;;;;;;41.25;19.98;;;;;;;5.26;87.74;99396.06;5055371;28;20044;-72
2021/01/05 06:11:04;;;;;;;41.10;19.85;;;;;;;5.14;87.58;99377.28;5055023;28;20397;-71
2021/01/05 06:13:30;;;;;;;38.95;19.52;;;;;;;5.20;87.74;99393.72;5055441;28;20058;-71
2021/01/05 06:15:55;;;;;;;41.65;20.58;;;;;;;5.26;87.21;99410.16;5037410;28;20041;-71
2021/01/05 06:18:21;;;;;;;35.38;15.80;;;;;;;5.27;87.32;99400.41;5055276;28;20082;-73
2021/01/05 06:20:46;;;;;;;42.25;20.33;;;;;;;4.96;87.51;99357.06;5037129;28;20390;-72
2021/01/05 06:23:12;;;;;;;38.58;19.30;;;;;;;5.18;87.52;99401.75;5055338;28;20037;-72
2021/01/05 06:25:38;;;;;;;40.67;20.20;;;;;;;5.01;87.72;99376.16;5037310;28;20378;-74
2021/01/05 06:28:05;;;;;;;40.28;20.10;;;;;;;4.97;88.24;99374.63;5054889;28;20052;-72
2021/01/05 06:30:31;;;;;;;39.47;19.48;;;;;;;5.11;87.77;99401.19;5037228;28;20452;-70
2021/01/05 06:32:56;;;;;;;38.88;19.67;;;;;;;5.02;88.44;99406.09;5054460;28;20056;-72
2021/01/05 06:35:23;;;;;;;42.47;20.52;;;;;;;5.12;88.25;99421.44;5055238;28;20033;-71
2021/01/05 06:37:50;;;;;;;43.95;21.00;;;;;;;4.98;88.77;99409.84;5037307;28;20075;-71
2021/01/05 06:40:21;;;;;;;44.42;22.10;;;;;;;4.84;89.30;99413.19;5036969;28;20055;-71
2021/01/05 06:42:46;;;;;;;43.92;21.42;;;;;;;4.86;89.45;99411.31;5054922;28;20024;-75
2021/01/05 06:45:41;;;;;;;42.95;21.13;;;;;;;4.98;89.17;99425.69;5037106;28;20111;-73
2021/01/05 06:48:07;;;;;;;39.15;18.92;;;;;;;4.95;89.18;99421.44;5050486;28;20119;-72
2021/01/05 06:50:33;;;;;;;32.92;16.98;;;;;;;4.97;88.50;99414.28;5054923;28;20132;-73
2021/01/05 06:52:58;;;;;;;33.40;17.05;;;;;;;5.08;88.15;99424.31;5039761;28;20037;-72
2021/01/05 06:55:24;;;;;;;34.03;16.83;;;;;;;5.08;87.25;99411.94;5034672;28;20088;-73
2021/01/05 06:57:50;;;;;;;35.45;17.17;;;;;;;4.99;87.39;99395.69;5016877;28;20033;-73
2021/01/05 07:00:22;;;;;;;35.00;17.13;;;;;;;5.07;87.58;99406.72;5034591;28;20055;-73
2021/01/05 07:02:47;;;;;;;32.92;16.33;;;;;;;5.16;86.83;99404.47;5034915;28;20025;-81
2021/01/05 07:05:14;;;;;;;35.83;16.30;;;;;;;5.26;86.51;99419.88;5034141;28;20086;-73
2021/01/05 07:07:40;;;;;;;32.35;16.98;;;;;;;5.26;86.45;99430.44;5034399;28;20501;-73
2021/01/05 07:10:06;;;;;;;30.88;15.82;;;;;;;4.99;86.42;99385.13;5034311;28;20038;-71
2021/01/05 07:12:32;;;;;;;27.58;13.73;;;;;;;5.34;86.00;99429.13;5034367;28;20489;-71
2021/01/05 07:14:59;;;;;;;30.27;15.77;;;;;;;5.33;85.54;99415.97;5034112;28;20176;-71
2021/01/05 07:17:24;;;;;;;29.00;14.27;;;;;;;5.32;85.53;99414.28;5034674;28;20045;-72
2021/01/05 07:19:49;;;;;;;29.30;15.13;;;;;;;5.46;84.75;99422.31;5034495;28;20030;-82
2021/01/05 07:22:15;;;;;;;26.95;12.50;;;;;;;5.44;84.30;99422.41;5016774;28;20040;-72
2021/01/05 07:24:40;;;;;;;26.35;13.60;;;;;;;5.47;84.24;99424.03;5034394;28;20115;-70
2021/01/05 07:27:06;;;;;;;27.63;13.93;;;;;;;5.49;84.67;99432.75;4999699;28;20402;-71
2021/01/05 07:29:31;;;;;;;28.40;14.95;;;;;;;5.22;84.85;99381.31;5034181;28;20036;-71
2021/01/05 07:31:57;;;;;;;33.72;17.08;;;;;;;5.35;84.90;99419.41;5033878;28;20103;-71
2021/01/05 07:34:22;;;;;;;40.28;20.33;;;;;;;5.42;85.75;99437.50;5034404;28;20041;-71
2021/01/05 07:36:54;;;;;;;44.42;19.75;;;;;;;5.35;86.15;99430.81;5016356;28;20040;-71
2021/01/05 07:39:22;;;;;;;43.65;19.75;;;;;;;5.40;86.20;99439.38;5034263;28;20025;-72
2021/01/05 07:41:49;;;;;;;41.70;20.50;;;;;;;5.36;86.66;99436.97;5034143;28;20021;-73
2021/01/05 07:44:15;;;;;;;43.00;20.75;;;;;;;5.33;86.52;99442.44;5034034;28;20112;-71
2021/01/05 07:46:41;;;;;;;43.13;20.27;;;;;;;5.42;85.94;99436.66;5016491;28;20064;-71
2021/01/05 07:49:07;;;;;;;43.80;20.67;;;;;;;5.26;85.47;99404.84;5033864;28;20431;-72
2021/01/05 07:51:33;;;;;;;45.72;21.50;;;;;;;5.55;85.88;99442.16;5033951;28;20177;-71
2021/01/05 07:53:59;;;;;;;44.67;21.75;;;;;;;5.55;85.29;99448.31;5015973;28;20128;-71
2021/01/05 07:56:24;;;;;;;45.83;21.08;;;;;;;5.52;85.73;99437.03;5015944;28;20065;-72
2021/01/05 07:58:52;;;;;;;46.13;20.17;;;;;;;5.70;84.49;99444.88;5033436;28;20067;-71
2021/01/05 08:01:18;;;;;;;42.15;20.20;;;;;;;5.68;84.36;99437.91;5033798;28;20099;-71
2021/01/05 08:03:43;;;;;;;40.28;17.75;;;;;;;5.79;84.01;99442.63;5033523;28;20037;-71
2021/01/05 08:06:10;;;;;;;31.02;15.07;;;;;;;5.76;82.91;99438.38;5015540;28;20033;-71
2021/01/05 08:08:35;;;;;;;35.95;17.45;;;;;;;5.71;82.79;99438.63;5033751;28;20436;-71
2021/01/05 08:11:01;;;;;;;34.33;17.63;;;;;;;5.74;83.33;99434.97;5015496;28;20037;-71
2021/01/05 08:13:26;;;;;;;27.15;12.55;;;;;;;5.92;82.06;99446.38;5015818;28;20037;-72
2021/01/05 08:15:52;;;;;;;29.52;14.52;;;;;;;5.72;82.27;99450.91;5015953;28;20041;-71
2021/01/05 08:18:17;;;;;;;35.45;15.77;;;;;;;5.89;82.48;99446.53;5032249;28;20029;-72
2021/01/05 08:20:43;;;;;;;36.97;17.60;;;;;;;5.99;82.04;99453.06;5033475;28;20398;-72
2021/01/05 08:23:08;;;;;;;40.20;19.35;;;;;;;6.08;81.86;99455.22;5032955;28;20041;-72
2021/01/05 08:25:34;;;;;;;44.33;20.35;;;;;;;6.12;81.77;99453.25;4999048;28;20438;-72
2021/01/05 08:28:00;;;;;;;39.25;19.35;;;;;;;6.15;81.42;99459.22;5033162;28;20044;-72
2021/01/05 08:30:29;;;;;;;43.00;19.77;;;;;;;6.08;81.49;99457.88;5033213;28;20120;-72
2021/01/05 08:32:59;;;;;;;42.58;20.17;;;;;;;6.26;81.50;99467.44;5032725;28;20411;-72
2021/01/05 08:35:25;;;;;;;42.22;19.25;;;;;;;6.21;81.20;99452.75;5033022;28;20055;-72
2021/01/05 08:37:51;;;;;;;39.83;19.65;;;;;;;6.30;81.26;99463.69;5033118;28;20029;-72
2021/01/05 08:40:34;;;;;;;39.55;18.48;;;;;;;6.28;80.54;99470.88;5032804;28;20483;-72
2021/01/05 08:43:06;;;;;;;21.92;10.80;;;;;;;5.88;79.54;99444.78;5015310;28;20033;-72
2021/01/05 08:45:31;;;;;;;23.45;11.05;;;;;;;5.83;80.51;99484.75;5033156;28;20103;-72
2021/01/05 08:47:57;;;;;;;21.95;11.70;;;;;;;5.86;80.49;99483.72;5032776;28;20029;-71
2021/01/05 08:50:29;;;;;;;28.58;12.70;;;;;;;5.51;80.73;99445.91;5015357;28;20095;-71
2021/01/05 08:53:02;;;;;;;28.70;13.23;;;;;;;5.82;80.98;99482.19;5032774;28;20096;-72
2021/01/05 08:55:28;;;;;;;28.98;14.68;;;;;;;5.79;81.20;99477.03;5016251;28;20041;-71
2021/01/05 08:57:54;;;;;;;27.92;13.48;;;;;;;5.86;80.47;99496.97;5015327;28;20498;-71
2021/01/05 09:00:20;;;;;;;21.45;9.68;;;;;;;5.74;81.08;99501.13;5032656;28;20131;-71
2021/01/05 09:02:46;;;;;;;27.05;14.35;;;;;;;5.61;81.11;99471.81;5033033;28;20033;-72
2021/01/05 09:05:12;;;;;;;29.73;13.63;;;;;;;5.91;81.03;99502.91;5014948;28;20108;-72
2021/01/05 09:07:38;;;;;;;29.10;13.77;;;;;;;5.74;81.16;99449.03;5032869;28;20040;-71
2021/01/05 09:10:06;;;;;;;28.05;13.00;;;;;;;5.93;80.03;99490.44;5032473;28;20422;-72
2021/01/05 09:12:33;;;;;;;29.50;14.43;;;;;;;6.11;79.97;99502.69;5032685;28;20490;-71
2021/01/05 09:14:59;;;;;;;22.30;9.73;;;;;;;5.62;80.46;99462.06;5032353;28;20055;-74
2021/01/05 09:17:25;;;;;;;26.63;13.90;;;;;;;5.70;79.81;99463.38;5032623;28;20033;-72
2021/01/05 09:19:50;;;;;;;14.38;7.13;;;;;;;5.81;80.47;99491.06;5015156;28;20034;-71
2021/01/05 09:22:20;;;;;;;27.85;12.52;;;;;;;5.81;80.94;99485.78;5015053;28;20029;-71
2021/01/05 09:24:46;;;;;;;22.77;10.13;;;;;;;5.71;81.15;99510.06;5033054;28;20041;-71
2021/01/05 09:27:11;;;;;;;21.35;9.75;;;;;;;5.43;81.70;99496.56;4998401;28;20037;-71
2021/01/05 09:29:36;;;;;;;13.77;6.25;;;;;;;5.44;81.32;99485.91;5035158;28;20040;-72
2021/01/05 09:32:02;;;;;;;19.80;9.35;;;;;;;5.21;81.84;99458.91;5036448;28;20509;-73
2021/01/05 09:34:27;;;;;;;28.50;12.73;;;;;;;5.58;81.13;99495.75;5036267;28;20037;-72
2021/01/05 09:36:53;;;;;;;27.35;13.32;;;;;;;5.68;81.34;99518.16;5019302;28;20091;-71
2021/01/05 09:39:22;;;;;;;29.00;13.77;;;;;;;5.69;81.19;99504.00;5018714;28;20489;-71
2021/01/05 09:42:03;;;;;;;21.55;9.52;;;;;;;5.62;81.11;99515.00;5036291;28;20100;-71
2021/01/05 09:44:29;;;;;;;24.10;10.18;;;;;;;5.38;81.61;99483.53;5036363;28;20121;-71
2021/01/05 09:46:57;;;;;;;23.60;10.35;;;;;;;5.37;81.52;99489.78;5036398;28;20033;-72
2021/01/05 09:49:24;;;;;;;24.20;12.07;;;;;;;5.50;81.67;99508.53;5036005;28;20083;-71
2021/01/05 09:51:49;;;;;;;25.80;12.32;;;;;;;5.63;80.95;99509.63;5018656;28;20117;-71
2021/01/05 09:54:16;;;;;;;22.63;11.52;;;;;;;5.58;81.61;99522.22;5018114;28;20104;-72
2021/01/05 09:56:49;;;;;;;26.60;12.00;;;;;;;5.42;81.49;99486.91;5018404;28;20040;-71
2021/01/05 09:59:14;;;;;;;31.48;15.25;;;;;;;5.66;81.19;99514.72;5018143;28;20413;-72
2021/01/05 10:01:40;;;;;;;22.60;10.82;;;;;;;5.69;80.87;99530.47;5001789;28;20034;-72
2021/01/05 10:04:05;;;;;;;33.88;14.93;;;;;;;5.51;80.91;99499.66;5035491;28;20033;-72
2021/01/05 10:06:33;;;;;;;25.98;12.65;;;;;;;5.44;81.34;99515.00;5018173;28;20388;-72
2021/01/05 10:08:59;;;;;;;13.18;6.18;;;;;;;5.42;81.47;99526.59;5036198;28;20029;-72
2021/01/05 10:11:32;;;;;;;29.60;14.43;;;;;;;5.73;81.43;99552.31;5017750;28;20092;-71
2021/01/05 10:13:57;;;;;;;22.80;10.60;;;;;;;5.63;81.89;99545.81;5035595;28;20029;-71
2021/01/05 10:16:23;;;;;;;28.23;13.23;;;;;;;5.76;81.03;99536.28;5035603;28;20437;-71
2021/01/05 10:18:48;;;;;;;27.90;13.82;;;;;;;5.46;81.49;99505.19;5035762;28;20033;-71
2021/01/05 10:21:14;;;;;;;28.45;13.32;;;;;;;5.33;81.30;99468.88;5017997;28;20049;-71
2021/01/05 10:23:40;;;;;;;22.83;11.25;;;;;;;5.75;80.41;99530.13;5035586;28;20072;-71
2021/01/05 10:26:05;;;;;;;25.05;10.90;;;;;;;5.31;80.84;99494.53;5001283;28;20038;-72
2021/01/05 10:28:30;;;;;;;25.02;10.70;;;;;;;5.60;80.80;99525.66;5017748;28;20040;-72
2021/01/05 10:30:56;;;;;;;26.13;11.30;;;;;;;5.45;81.26;99526.41;5017642;28;20041;-72
2021/01/05 10:33:21;;;;;;;28.15;13.25;;;;;;;5.81;80.75;99536.06;5035165;28;20041;-71
2021/01/05 10:35:47;;;;;;;24.73;11.68;;;;;;;5.60;80.71;99517.72;5035327;28;20497;-71
2021/01/05 10:38:13;;;;;;;27.63;13.02;;;;;;;5.67;80.56;99526.16;5035169;28;20056;-71
2021/01/05 10:40:38;;;;;;;30.65;14.40;;;;;;;5.92;79.82;99531.09;5034297;28;20427;-71
2021/01/05 10:43:04;;;;;;;25.35;12.65;;;;;;;5.94;79.53;99534.50;5035039;28;20030;-72
2021/01/05 10:45:29;;;;;;;27.02;12.57;;;;;;;5.71;79.99;99507.44;5017382;28;20418;-72
2021/01/05 10:47:55;;;;;;;29.27;13.77;;;;;;;5.78;80.18;99505.28;5017710;28;20124;-71
2021/01/05 10:50:23;;;;;;;25.45;12.88;;;;;;;5.82;80.14;99540.41;5034688;28;20112;-71
2021/01/05 10:52:49;;;;;;;26.60;13.25;;;;;;;6.12;79.61;99538.84;5017548;28;20036;-71
2021/01/05 10:55:16;;;;;;;24.80;11.98;;;;;;;5.95;79.34;99547.66;5034562;28;20396;-71
2021/01/05 10:57:42;;;;;;;27.23;13.48;;;;;;;6.03;79.44;99523.44;5035112;28;20541;-71
2021/01/05 11:00:09;;;;;;;27.15;13.13;;;;;;;5.80;79.52;99502.59;5034557;28;20030;-71
2021/01/05 11:02:35;;;;;;;30.60;14.57;;;;;;;5.67;79.35;99489.97;5034887;28;20030;-71
2021/01/05 11:05:00;;;;;;;31.40;14.38;;;;;;;6.11;78.33;99531.84;5034733;28;20383;-71
2021/01/05 11:07:26;;;;;;;29.02;14.60;;;;;;;6.06;78.93;99523.25;4984215;28;20414;-71
2021/01/05 11:09:51;;;;;;;29.65;14.02;;;;;;;6.11;78.53;99526.53;5017140;28;20636;-72
2021/01/05 11:12:23;;;;;;;27.90;14.35;;;;;;;6.23;79.08;99541.75;5034239;28;20108;-72
2021/01/05 11:14:49;;;;;;;26.15;14.23;;;;;;;6.08;78.92;99547.88;5034665;28;20033;-71
2021/01/05 11:17:14;;;;;;;30.98;14.75;;;;;;;6.00;79.47;99529.75;5016790;28;20033;-71
2021/01/05 11:19:41;;;;;;;26.05;13.02;;;;;;;6.05;78.88;99521.56;5016837;28;20486;-71
2021/01/05 11:22:10;;;;;;;26.08;13.95;;;;;;;6.18;79.03;99537.66;5016817;28;20486;-71
2021/01/05 11:24:37;;;;;;;22.02;11.00;;;;;;;6.23;77.68;99541.75;5034612;28;20025;-71
2021/01/05 11:27:05;;;;;;;24.65;12.52;;;;;;;5.62;79.26;99488.53;5034165;28;20038;-71
2021/01/05 11:29:31;;;;;;;21.83;10.60;;;;;;;5.93;79.02;99541.59;5034055;28;20037;-71
2021/01/05 11:32:00;;;;;;;21.63;10.43;;;;;;;5.70;78.68;99521.59;5019481;28;20406;-72
2021/01/05 11:34:26;;;;;;;23.42;12.95;;;;;;;5.86;78.68;99540.16;5053881;28;20462;-71
2021/01/05 11:36:52;;;;;;;20.65;11.20;;;;;;;5.75;79.17;99538.06;5054222;28;20108;-71
2021/01/05 11:39:18;;;;;;;14.68;8.18;;;;;;;5.56;79.17;99529.38;5052761;28;20447;-72
2021/01/05 11:41:45;;;;;;;25.00;12.73;;;;;;;5.80;79.30;99537.00;5053080;28;20064;-72